sensor_id;sensor_type;location;lat;lon;timestamp;P1;durP1;ratioP1;P2;durP2;ratioP2
9722;SDS011;4900;49.306;8.500;2023-08-31T00:00:33;2.95;;;2.58;;
9722;SDS011;4900;49.306;8.500;2023-08-31T00:02:59;3.78;;;2.90;;
9722;SDS011;4900;49.306;8.500;2023-08-31T00:05:25;3.38;;;2.88;;
9722;SDS011;4900;49.306;8.500;2023-08-31T00:07:53;4.30;;;3.10;;
9722;SDS011;4900;49.306;8.500;2023-08-31T00:10:21;4.15;;;3.33;;
9722;SDS011;4900;49.306;8.500;2023-08-31T00:12:48;4.47;;;3.22;;
9722;SDS011;4900;49.306;8.500;2023-08-31T00:15:14;3.80;;;3.10;;
9722;SDS011;4900;49.306;8.500;2023-08-31T00:17:40;3.67;;;2.85;;
9722;SDS011;4900;49.306;8.500;2023-08-31T00:20:06;4.70;;;2.97;;
9722;SDS011;4900;49.306;8.500;2023-08-31T00:22:33;2.83;;;2.53;;
9722;SDS011;4900;49.306;8.500;2023-08-31T00:24:58;4.45;;;2.80;;
9722;SDS011;4900;49.306;8.500;2023-08-31T00:27:23;3.65;;;2.72;;
9722;SDS011;4900;49.306;8.500;2023-08-31T00:29:49;3.60;;;2.40;;
9722;SDS011;4900;49.306;8.500;2023-08-31T00:32:16;3.33;;;2.45;;
9722;SDS011;4900;49.306;8.500;2023-08-31T00:34:43;2.90;;;2.35;;
9722;SDS011;4900;49.306;8.500;2023-08-31T00:37:09;2.63;;;2.20;;
9722;SDS011;4900;49.306;8.500;2023-08-31T00:39:34;3.40;;;2.40;;
9722;SDS011;4900;49.306;8.500;2023-08-31T00:41:59;3.38;;;2.40;;
9722;SDS011;4900;49.306;8.500;2023-08-31T00:44:25;2.50;;;2.30;;
9722;SDS011;4900;49.306;8.500;2023-08-31T00:46:51;3.50;;;2.20;;
9722;SDS011;4900;49.306;8.500;2023-08-31T00:49:17;4.13;;;2.83;;
9722;SDS011;4900;49.306;8.500;2023-08-31T00:51:43;3.13;;;2.55;;
9722;SDS011;4900;49.306;8.500;2023-08-31T00:54:14;5.38;;;2.97;;
9722;SDS011;4900;49.306;8.500;2023-08-31T00:56:41;6.60;;;3.92;;
9722;SDS011;4900;49.306;8.500;2023-08-31T00:59:06;4.93;;;4.15;;
9722;SDS011;4900;49.306;8.500;2023-08-31T01:01:51;5.43;;;4.40;;
9722;SDS011;4900;49.306;8.500;2023-08-31T01:12:49;8.07;;;4.18;;
9722;SDS011;4900;49.306;8.500;2023-08-31T01:15:17;5.65;;;4.10;;
9722;SDS011;4900;49.306;8.500;2023-08-31T01:17:50;4.88;;;4.15;;
9722;SDS011;4900;49.306;8.500;2023-08-31T01:20:20;3.83;;;3.38;;
9722;SDS011;4900;49.306;8.500;2023-08-31T01:22:55;4.53;;;3.17;;
9722;SDS011;4900;49.306;8.500;2023-08-31T01:25:25;5.30;;;3.40;;
9722;SDS011;4900;49.306;8.500;2023-08-31T01:27:51;4.75;;;3.70;;
9722;SDS011;4900;49.306;8.500;2023-08-31T01:30:16;3.50;;;3.20;;
9722;SDS011;4900;49.306;8.500;2023-08-31T01:32:45;4.93;;;3.47;;
9722;SDS011;4900;49.306;8.500;2023-08-31T01:35:11;4.03;;;3.20;;
9722;SDS011;4900;49.306;8.500;2023-08-31T01:40:17;4.53;;;3.53;;
9722;SDS011;4900;49.306;8.500;2023-08-31T01:42:48;3.83;;;3.42;;
9722;SDS011;4900;49.306;8.500;2023-08-31T01:45:16;4.10;;;3.45;;
9722;SDS011;4900;49.306;8.500;2023-08-31T01:47:47;5.28;;;3.95;;
9722;SDS011;4900;49.306;8.500;2023-08-31T01:50:12;5.47;;;4.00;;
9722;SDS011;4900;49.306;8.500;2023-08-31T01:52:38;7.43;;;4.20;;
9722;SDS011;4900;49.306;8.500;2023-08-31T01:55:04;4.78;;;4.07;;
9722;SDS011;4900;49.306;8.500;2023-08-31T01:57:30;4.18;;;3.78;;
9722;SDS011;4900;49.306;8.500;2023-08-31T01:59:57;4.15;;;3.75;;
9722;SDS011;4900;49.306;8.500;2023-08-31T02:02:22;5.00;;;3.67;;
9722;SDS011;4900;49.306;8.500;2023-08-31T02:04:48;4.85;;;3.40;;
9722;SDS011;4900;49.306;8.500;2023-08-31T02:07:13;4.22;;;3.78;;
9722;SDS011;4900;49.306;8.500;2023-08-31T02:09:39;4.88;;;3.90;;
9722;SDS011;4900;49.306;8.500;2023-08-31T02:12:04;4.55;;;3.63;;
9722;SDS011;4900;49.306;8.500;2023-08-31T02:14:32;5.53;;;3.88;;
9722;SDS011;4900;49.306;8.500;2023-08-31T02:16:58;4.25;;;3.40;;
9722;SDS011;4900;49.306;8.500;2023-08-31T02:19:23;4.72;;;3.33;;
9722;SDS011;4900;49.306;8.500;2023-08-31T02:21:48;3.35;;;3.05;;
9722;SDS011;4900;49.306;8.500;2023-08-31T02:24:14;3.53;;;3.22;;
9722;SDS011;4900;49.306;8.500;2023-08-31T02:26:39;6.25;;;3.60;;
9722;SDS011;4900;49.306;8.500;2023-08-31T02:29:05;4.47;;;3.10;;
9722;SDS011;4900;49.306;8.500;2023-08-31T02:31:30;4.35;;;3.35;;
9722;SDS011;4900;49.306;8.500;2023-08-31T02:33:55;4.45;;;3.25;;
9722;SDS011;4900;49.306;8.500;2023-08-31T02:36:23;3.88;;;3.53;;
9722;SDS011;4900;49.306;8.500;2023-08-31T02:38:48;4.95;;;3.70;;
9722;SDS011;4900;49.306;8.500;2023-08-31T02:41:15;3.95;;;3.55;;
9722;SDS011;4900;49.306;8.500;2023-08-31T02:43:42;4.97;;;3.75;;
9722;SDS011;4900;49.306;8.500;2023-08-31T02:46:07;5.95;;;4.43;;
9722;SDS011;4900;49.306;8.500;2023-08-31T02:48:33;11.00;;;5.95;;
9722;SDS011;4900;49.306;8.500;2023-08-31T02:50:58;6.03;;;4.50;;
9722;SDS011;4900;49.306;8.500;2023-08-31T02:53:29;6.13;;;5.03;;
9722;SDS011;4900;49.306;8.500;2023-08-31T02:55:56;5.78;;;4.80;;
9722;SDS011;4900;49.306;8.500;2023-08-31T02:58:21;7.18;;;4.55;;
9722;SDS011;4900;49.306;8.500;2023-08-31T03:00:48;6.20;;;4.20;;
9722;SDS011;4900;49.306;8.500;2023-08-31T03:03:15;5.97;;;4.40;;
9722;SDS011;4900;49.306;8.500;2023-08-31T03:05:40;7.55;;;4.15;;
9722;SDS011;4900;49.306;8.500;2023-08-31T03:08:06;5.97;;;4.25;;
9722;SDS011;4900;49.306;8.500;2023-08-31T03:10:31;6.32;;;4.25;;
9722;SDS011;4900;49.306;8.500;2023-08-31T03:12:57;5.53;;;4.03;;
9722;SDS011;4900;49.306;8.500;2023-08-31T03:15:22;6.30;;;4.90;;
9722;SDS011;4900;49.306;8.500;2023-08-31T03:17:48;6.43;;;5.00;;
9722;SDS011;4900;49.306;8.500;2023-08-31T03:20:13;6.47;;;4.43;;
9722;SDS011;4900;49.306;8.500;2023-08-31T03:22:39;6.57;;;4.65;;
9722;SDS011;4900;49.306;8.500;2023-08-31T03:25:04;7.53;;;5.15;;
9722;SDS011;4900;49.306;8.500;2023-08-31T03:27:30;6.38;;;4.82;;
9722;SDS011;4900;49.306;8.500;2023-08-31T03:29:55;7.60;;;4.80;;
9722;SDS011;4900;49.306;8.500;2023-08-31T03:32:21;9.30;;;5.78;;
9722;SDS011;4900;49.306;8.500;2023-08-31T03:34:46;8.85;;;6.63;;
9722;SDS011;4900;49.306;8.500;2023-08-31T03:37:12;9.02;;;5.55;;
9722;SDS011;4900;49.306;8.500;2023-08-31T03:39:38;9.85;;;6.82;;
9722;SDS011;4900;49.306;8.500;2023-08-31T03:42:06;7.93;;;6.40;;
9722;SDS011;4900;49.306;8.500;2023-08-31T03:44:31;8.43;;;6.13;;
9722;SDS011;4900;49.306;8.500;2023-08-31T03:46:57;9.18;;;5.75;;
9722;SDS011;4900;49.306;8.500;2023-08-31T03:49:22;7.15;;;6.05;;
9722;SDS011;4900;49.306;8.500;2023-08-31T03:51:47;8.48;;;6.22;;
9722;SDS011;4900;49.306;8.500;2023-08-31T03:54:13;9.02;;;5.93;;
9722;SDS011;4900;49.306;8.500;2023-08-31T03:56:39;7.63;;;5.80;;
9722;SDS011;4900;49.306;8.500;2023-08-31T03:59:05;7.47;;;5.50;;
9722;SDS011;4900;49.306;8.500;2023-08-31T04:01:30;7.60;;;5.00;;
9722;SDS011;4900;49.306;8.500;2023-08-31T04:03:55;7.35;;;5.90;;
9722;SDS011;4900;49.306;8.500;2023-08-31T04:06:21;7.95;;;5.32;;
9722;SDS011;4900;49.306;8.500;2023-08-31T04:08:46;6.50;;;4.70;;
9722;SDS011;4900;49.306;8.500;2023-08-31T04:11:12;6.60;;;5.18;;
9722;SDS011;4900;49.306;8.500;2023-08-31T04:13:37;8.32;;;4.68;;
9722;SDS011;4900;49.306;8.500;2023-08-31T04:16:02;4.97;;;3.63;;
9722;SDS011;4900;49.306;8.500;2023-08-31T04:18:28;4.65;;;3.55;;
9722;SDS011;4900;49.306;8.500;2023-08-31T04:20:54;3.95;;;3.35;;
9722;SDS011;4900;49.306;8.500;2023-08-31T04:23:19;4.75;;;3.28;;
9722;SDS011;4900;49.306;8.500;2023-08-31T04:25:45;3.58;;;3.10;;
9722;SDS011;4900;49.306;8.500;2023-08-31T04:28:12;6.50;;;3.38;;
9722;SDS011;4900;49.306;8.500;2023-08-31T04:30:38;5.40;;;3.00;;
9722;SDS011;4900;49.306;8.500;2023-08-31T04:33:05;6.28;;;3.60;;
9722;SDS011;4900;49.306;8.500;2023-08-31T04:35:31;3.50;;;3.20;;
9722;SDS011;4900;49.306;8.500;2023-08-31T04:37:57;4.78;;;3.33;;
9722;SDS011;4900;49.306;8.500;2023-08-31T04:40:23;5.40;;;3.10;;
9722;SDS011;4900;49.306;8.500;2023-08-31T04:42:49;5.28;;;3.30;;
9722;SDS011;4900;49.306;8.500;2023-08-31T04:45:15;5.88;;;3.40;;
9722;SDS011;4900;49.306;8.500;2023-08-31T04:47:41;4.07;;;3.03;;
9722;SDS011;4900;49.306;8.500;2023-08-31T04:50:07;4.80;;;3.17;;
9722;SDS011;4900;49.306;8.500;2023-08-31T04:52:33;4.85;;;3.28;;
9722;SDS011;4900;49.306;8.500;2023-08-31T04:55:00;4.28;;;3.70;;
9722;SDS011;4900;49.306;8.500;2023-08-31T04:57:26;4.15;;;3.75;;
9722;SDS011;4900;49.306;8.500;2023-08-31T04:59:52;5.72;;;3.88;;
9722;SDS011;4900;49.306;8.500;2023-08-31T05:02:17;6.60;;;4.20;;
9722;SDS011;4900;49.306;8.500;2023-08-31T05:04:44;5.80;;;4.47;;
9722;SDS011;4900;49.306;8.500;2023-08-31T05:07:09;6.32;;;4.30;;
9722;SDS011;4900;49.306;8.500;2023-08-31T05:09:34;6.50;;;4.38;;
9722;SDS011;4900;49.306;8.500;2023-08-31T05:12:03;4.68;;;3.67;;
9722;SDS011;4900;49.306;8.500;2023-08-31T05:14:29;6.05;;;3.92;;
9722;SDS011;4900;49.306;8.500;2023-08-31T05:16:54;5.30;;;4.28;;
9722;SDS011;4900;49.306;8.500;2023-08-31T05:19:20;4.97;;;3.78;;
9722;SDS011;4900;49.306;8.500;2023-08-31T05:21:46;6.30;;;4.53;;
9722;SDS011;4900;49.306;8.500;2023-08-31T05:24:11;6.13;;;4.80;;
9722;SDS011;4900;49.306;8.500;2023-08-31T05:26:37;6.90;;;4.55;;
9722;SDS011;4900;49.306;8.500;2023-08-31T05:29:02;5.75;;;4.35;;
9722;SDS011;4900;49.306;8.500;2023-08-31T05:31:31;6.13;;;4.40;;
9722;SDS011;4900;49.306;8.500;2023-08-31T05:33:57;5.63;;;4.80;;
9722;SDS011;4900;49.306;8.500;2023-08-31T05:36:22;5.90;;;4.75;;
9722;SDS011;4900;49.306;8.500;2023-08-31T05:38:48;6.68;;;5.05;;
9722;SDS011;4900;49.306;8.500;2023-08-31T05:41:13;5.80;;;5.05;;
9722;SDS011;4900;49.306;8.500;2023-08-31T05:43:39;6.00;;;4.38;;
9722;SDS011;4900;49.306;8.500;2023-08-31T05:46:05;5.10;;;4.28;;
9722;SDS011;4900;49.306;8.500;2023-08-31T05:48:31;7.38;;;5.10;;
9722;SDS011;4900;49.306;8.500;2023-08-31T05:50:56;8.57;;;6.38;;
9722;SDS011;4900;49.306;8.500;2023-08-31T05:53:22;7.28;;;5.43;;
9722;SDS011;4900;49.306;8.500;2023-08-31T05:55:48;7.97;;;5.97;;
9722;SDS011;4900;49.306;8.500;2023-08-31T05:58:13;7.55;;;5.47;;
9722;SDS011;4900;49.306;8.500;2023-08-31T06:00:39;5.90;;;5.00;;
9722;SDS011;4900;49.306;8.500;2023-08-31T06:03:04;7.45;;;5.40;;
9722;SDS011;4900;49.306;8.500;2023-08-31T06:05:31;7.30;;;5.15;;
9722;SDS011;4900;49.306;8.500;2023-08-31T06:07:57;7.13;;;5.70;;
9722;SDS011;4900;49.306;8.500;2023-08-31T06:10:23;5.97;;;5.18;;
9722;SDS011;4900;49.306;8.500;2023-08-31T06:12:49;8.52;;;5.22;;
9722;SDS011;4900;49.306;8.500;2023-08-31T06:15:16;6.53;;;4.93;;
9722;SDS011;4900;49.306;8.500;2023-08-31T06:17:42;7.35;;;5.82;;
9722;SDS011;4900;49.306;8.500;2023-08-31T06:20:08;7.20;;;5.30;;
9722;SDS011;4900;49.306;8.500;2023-08-31T06:22:34;8.52;;;5.97;;
9722;SDS011;4900;49.306;8.500;2023-08-31T06:25:00;8.82;;;5.35;;
9722;SDS011;4900;49.306;8.500;2023-08-31T06:27:25;8.95;;;5.20;;
9722;SDS011;4900;49.306;8.500;2023-08-31T06:29:51;8.32;;;4.85;;
9722;SDS011;4900;49.306;8.500;2023-08-31T06:32:17;6.22;;;4.60;;
9722;SDS011;4900;49.306;8.500;2023-08-31T06:34:43;6.03;;;4.32;;
9722;SDS011;4900;49.306;8.500;2023-08-31T06:37:09;5.40;;;4.22;;
9722;SDS011;4900;49.306;8.500;2023-08-31T06:39:35;5.38;;;4.03;;
9722;SDS011;4900;49.306;8.500;2023-08-31T06:42:01;7.90;;;4.05;;
9722;SDS011;4900;49.306;8.500;2023-08-31T06:44:27;5.85;;;4.25;;
9722;SDS011;4900;49.306;8.500;2023-08-31T06:46:54;6.45;;;4.68;;
9722;SDS011;4900;49.306;8.500;2023-08-31T06:49:20;5.63;;;4.07;;
9722;SDS011;4900;49.306;8.500;2023-08-31T06:51:45;6.53;;;4.53;;
9722;SDS011;4900;49.306;8.500;2023-08-31T06:54:11;6.82;;;4.70;;
9722;SDS011;4900;49.306;8.500;2023-08-31T06:56:36;7.97;;;4.72;;
9722;SDS011;4900;49.306;8.500;2023-08-31T06:59:02;7.18;;;4.75;;
9722;SDS011;4900;49.306;8.500;2023-08-31T07:01:28;5.95;;;4.35;;
9722;SDS011;4900;49.306;8.500;2023-08-31T07:03:54;6.22;;;3.70;;
9722;SDS011;4900;49.306;8.500;2023-08-31T07:06:20;4.60;;;3.55;;
9722;SDS011;4900;49.306;8.500;2023-08-31T07:08:45;6.47;;;3.70;;
9722;SDS011;4900;49.306;8.500;2023-08-31T07:11:12;5.20;;;3.28;;
9722;SDS011;4900;49.306;8.500;2023-08-31T07:13:38;5.43;;;3.00;;
9722;SDS011;4900;49.306;8.500;2023-08-31T07:16:03;4.70;;;3.03;;
9722;SDS011;4900;49.306;8.500;2023-08-31T07:18:29;4.53;;;2.55;;
9722;SDS011;4900;49.306;8.500;2023-08-31T07:20:55;4.85;;;2.50;;
9722;SDS011;4900;49.306;8.500;2023-08-31T07:23:20;5.35;;;2.72;;
9722;SDS011;4900;49.306;8.500;2023-08-31T07:25:46;5.55;;;2.30;;
9722;SDS011;4900;49.306;8.500;2023-08-31T07:28:12;2.28;;;2.05;;
9722;SDS011;4900;49.306;8.500;2023-08-31T07:30:37;2.60;;;2.08;;
9722;SDS011;4900;49.306;8.500;2023-08-31T07:33:03;3.70;;;2.10;;
9722;SDS011;4900;49.306;8.500;2023-08-31T07:35:32;4.97;;;2.10;;
9722;SDS011;4900;49.306;8.500;2023-08-31T07:37:57;3.35;;;2.15;;
9722;SDS011;4900;49.306;8.500;2023-08-31T07:40:23;2.90;;;2.05;;
9722;SDS011;4900;49.306;8.500;2023-08-31T07:42:48;4.75;;;2.42;;
9722;SDS011;4900;49.306;8.500;2023-08-31T07:45:15;2.95;;;2.15;;
9722;SDS011;4900;49.306;8.500;2023-08-31T07:47:40;4.13;;;2.30;;
9722;SDS011;4900;49.306;8.500;2023-08-31T07:50:06;4.38;;;2.20;;
9722;SDS011;4900;49.306;8.500;2023-08-31T07:52:31;2.63;;;1.95;;
9722;SDS011;4900;49.306;8.500;2023-08-31T07:54:57;3.20;;;1.83;;
9722;SDS011;4900;49.306;8.500;2023-08-31T07:57:23;2.83;;;1.85;;
9722;SDS011;4900;49.306;8.500;2023-08-31T07:59:49;4.05;;;2.17;;
9722;SDS011;4900;49.306;8.500;2023-08-31T08:02:14;2.97;;;2.08;;
9722;SDS011;4900;49.306;8.500;2023-08-31T08:04:41;5.07;;;1.60;;
9722;SDS011;4900;49.306;8.500;2023-08-31T08:07:06;3.50;;;2.00;;
9722;SDS011;4900;49.306;8.500;2023-08-31T08:09:33;4.10;;;1.90;;
9722;SDS011;4900;49.306;8.500;2023-08-31T08:11:59;3.60;;;1.75;;
9722;SDS011;4900;49.306;8.500;2023-08-31T08:14:24;2.28;;;1.65;;
9722;SDS011;4900;49.306;8.500;2023-08-31T08:16:50;3.08;;;1.95;;
9722;SDS011;4900;49.306;8.500;2023-08-31T08:19:20;3.10;;;1.90;;
9722;SDS011;4900;49.306;8.500;2023-08-31T08:21:52;4.60;;;1.83;;
9722;SDS011;4900;49.306;8.500;2023-08-31T08:24:17;4.15;;;2.00;;
9722;SDS011;4900;49.306;8.500;2023-08-31T08:26:43;3.13;;;2.00;;
9722;SDS011;4900;49.306;8.500;2023-08-31T08:29:09;2.85;;;1.77;;
9722;SDS011;4900;49.306;8.500;2023-08-31T08:31:34;3.63;;;1.95;;
9722;SDS011;4900;49.306;8.500;2023-08-31T08:34:00;3.63;;;2.22;;
9722;SDS011;4900;49.306;8.500;2023-08-31T08:36:25;3.90;;;2.03;;
9722;SDS011;4900;49.306;8.500;2023-08-31T08:38:51;3.58;;;2.90;;
9722;SDS011;4900;49.306;8.500;2023-08-31T08:41:17;4.97;;;2.63;;
9722;SDS011;4900;49.306;8.500;2023-08-31T08:43:47;4.78;;;2.70;;
9722;SDS011;4900;49.306;8.500;2023-08-31T08:46:15;3.90;;;2.55;;
9722;SDS011;4900;49.306;8.500;2023-08-31T08:48:40;3.55;;;2.25;;
9722;SDS011;4900;49.306;8.500;2023-08-31T08:51:07;3.17;;;2.22;;
9722;SDS011;4900;49.306;8.500;2023-08-31T08:53:35;4.18;;;2.13;;
9722;SDS011;4900;49.306;8.500;2023-08-31T08:56:02;2.92;;;2.10;;
9722;SDS011;4900;49.306;8.500;2023-08-31T08:58:29;2.47;;;2.00;;
9722;SDS011;4900;49.306;8.500;2023-08-31T09:00:54;5.10;;;1.90;;
9722;SDS011;4900;49.306;8.500;2023-08-31T09:03:23;2.30;;;1.83;;
9722;SDS011;4900;49.306;8.500;2023-08-31T09:05:49;3.20;;;1.90;;
9722;SDS011;4900;49.306;8.500;2023-08-31T09:08:16;3.20;;;2.00;;
9722;SDS011;4900;49.306;8.500;2023-08-31T09:10:44;3.85;;;1.92;;
9722;SDS011;4900;49.306;8.500;2023-08-31T09:13:11;2.60;;;1.73;;
9722;SDS011;4900;49.306;8.500;2023-08-31T09:15:45;4.53;;;2.10;;
9722;SDS011;4900;49.306;8.500;2023-08-31T09:18:31;2.72;;;1.90;;
9722;SDS011;4900;49.306;8.500;2023-08-31T09:20:57;3.58;;;1.70;;
9722;SDS011;4900;49.306;8.500;2023-08-31T09:23:23;2.80;;;1.90;;
9722;SDS011;4900;49.306;8.500;2023-08-31T09:25:50;2.95;;;1.80;;
9722;SDS011;4900;49.306;8.500;2023-08-31T09:28:19;3.03;;;1.83;;
9722;SDS011;4900;49.306;8.500;2023-08-31T09:30:47;3.97;;;1.70;;
9722;SDS011;4900;49.306;8.500;2023-08-31T09:33:14;3.08;;;1.77;;
9722;SDS011;4900;49.306;8.500;2023-08-31T09:35:46;2.53;;;1.80;;
9722;SDS011;4900;49.306;8.500;2023-08-31T09:38:16;1.95;;;1.73;;
9722;SDS011;4900;49.306;8.500;2023-08-31T09:40:42;3.10;;;1.90;;
9722;SDS011;4900;49.306;8.500;2023-08-31T09:43:07;3.92;;;1.80;;
9722;SDS011;4900;49.306;8.500;2023-08-31T09:45:33;2.45;;;1.80;;
9722;SDS011;4900;49.306;8.500;2023-08-31T09:48:00;2.97;;;1.77;;
9722;SDS011;4900;49.306;8.500;2023-08-31T09:50:31;3.25;;;1.90;;
9722;SDS011;4900;49.306;8.500;2023-08-31T09:53:01;2.83;;;2.00;;
9722;SDS011;4900;49.306;8.500;2023-08-31T09:55:29;2.30;;;1.75;;
9722;SDS011;4900;49.306;8.500;2023-08-31T09:57:56;2.55;;;1.92;;
9722;SDS011;4900;49.306;8.500;2023-08-31T10:00:31;2.22;;;1.90;;
9722;SDS011;4900;49.306;8.500;2023-08-31T10:03:00;2.40;;;1.80;;
9722;SDS011;4900;49.306;8.500;2023-08-31T10:05:29;2.47;;;1.60;;
9722;SDS011;4900;49.306;8.500;2023-08-31T10:07:54;4.03;;;1.67;;
9722;SDS011;4900;49.306;8.500;2023-08-31T10:10:20;3.28;;;1.70;;
9722;SDS011;4900;49.306;8.500;2023-08-31T10:12:49;5.53;;;1.83;;
9722;SDS011;4900;49.306;8.500;2023-08-31T10:15:17;3.60;;;1.83;;
9722;SDS011;4900;49.306;8.500;2023-08-31T10:17:43;4.15;;;1.70;;
9722;SDS011;4900;49.306;8.500;2023-08-31T10:20:09;2.53;;;1.90;;
9722;SDS011;4900;49.306;8.500;2023-08-31T10:22:36;2.35;;;1.80;;
9722;SDS011;4900;49.306;8.500;2023-08-31T10:25:03;2.80;;;1.65;;
9722;SDS011;4900;49.306;8.500;2023-08-31T10:27:40;3.05;;;1.90;;
9722;SDS011;4900;49.306;8.500;2023-08-31T10:32:40;2.65;;;1.65;;
9722;SDS011;4900;49.306;8.500;2023-08-31T10:35:07;2.70;;;1.70;;
9722;SDS011;4900;49.306;8.500;2023-08-31T10:37:33;2.30;;;1.67;;
9722;SDS011;4900;49.306;8.500;2023-08-31T10:40:08;3.72;;;1.70;;
9722;SDS011;4900;49.306;8.500;2023-08-31T10:42:43;3.78;;;1.90;;
9722;SDS011;4900;49.306;8.500;2023-08-31T10:45:09;2.92;;;1.83;;
9722;SDS011;4900;49.306;8.500;2023-08-31T10:47:39;3.55;;;1.80;;
9722;SDS011;4900;49.306;8.500;2023-08-31T10:50:21;3.53;;;1.90;;
9722;SDS011;4900;49.306;8.500;2023-08-31T10:52:47;3.30;;;2.00;;
9722;SDS011;4900;49.306;8.500;2023-08-31T10:55:13;3.10;;;1.75;;
9722;SDS011;4900;49.306;8.500;2023-08-31T10:57:39;3.38;;;1.90;;
9722;SDS011;4900;49.306;8.500;2023-08-31T11:00:06;3.13;;;1.90;;
9722;SDS011;4900;49.306;8.500;2023-08-31T11:05:11;6.18;;;2.20;;
9722;SDS011;4900;49.306;8.500;2023-08-31T11:07:41;3.83;;;1.85;;
9722;SDS011;4900;49.306;8.500;2023-08-31T11:10:12;4.18;;;1.90;;
9722;SDS011;4900;49.306;8.500;2023-08-31T11:12:40;2.92;;;1.80;;
9722;SDS011;4900;49.306;8.500;2023-08-31T11:15:06;3.95;;;2.00;;
9722;SDS011;4900;49.306;8.500;2023-08-31T11:17:32;3.00;;;1.90;;
9722;SDS011;4900;49.306;8.500;2023-08-31T11:19:59;3.63;;;2.17;;
9722;SDS011;4900;49.306;8.500;2023-08-31T11:22:25;3.53;;;2.00;;
9722;SDS011;4900;49.306;8.500;2023-08-31T11:24:50;2.88;;;1.95;;
9722;SDS011;4900;49.306;8.500;2023-08-31T11:27:19;5.13;;;2.30;;
9722;SDS011;4900;49.306;8.500;2023-08-31T11:29:45;3.22;;;1.70;;
9722;SDS011;4900;49.306;8.500;2023-08-31T11:32:11;4.97;;;2.20;;
9722;SDS011;4900;49.306;8.500;2023-08-31T11:34:44;2.83;;;1.92;;
9722;SDS011;4900;49.306;8.500;2023-08-31T11:37:13;4.07;;;1.85;;
9722;SDS011;4900;49.306;8.500;2023-08-31T11:39:49;2.90;;;1.90;;
9722;SDS011;4900;49.306;8.500;2023-08-31T11:42:15;4.50;;;2.10;;
9722;SDS011;4900;49.306;8.500;2023-08-31T11:44:43;3.80;;;2.30;;
9722;SDS011;4900;49.306;8.500;2023-08-31T11:47:13;3.70;;;2.20;;
9722;SDS011;4900;49.306;8.500;2023-08-31T11:49:40;4.50;;;2.30;;
9722;SDS011;4900;49.306;8.500;2023-08-31T11:52:06;4.53;;;2.20;;
9722;SDS011;4900;49.306;8.500;2023-08-31T11:54:32;4.38;;;2.10;;
9722;SDS011;4900;49.306;8.500;2023-08-31T11:56:57;3.72;;;2.13;;
9722;SDS011;4900;49.306;8.500;2023-08-31T11:59:23;4.22;;;2.03;;
9722;SDS011;4900;49.306;8.500;2023-08-31T12:01:49;3.78;;;1.95;;
9722;SDS011;4900;49.306;8.500;2023-08-31T12:04:16;3.65;;;2.03;;
9722;SDS011;4900;49.306;8.500;2023-08-31T12:06:49;3.08;;;2.08;;
9722;SDS011;4900;49.306;8.500;2023-08-31T12:09:16;5.40;;;2.60;;
9722;SDS011;4900;49.306;8.500;2023-08-31T12:11:42;5.43;;;2.85;;
9722;SDS011;4900;49.306;8.500;2023-08-31T12:14:18;5.53;;;2.47;;
9722;SDS011;4900;49.306;8.500;2023-08-31T12:16:45;3.42;;;2.05;;
9722;SDS011;4900;49.306;8.500;2023-08-31T12:19:11;5.15;;;2.25;;
9722;SDS011;4900;49.306;8.500;2023-08-31T12:21:36;3.00;;;1.90;;
9722;SDS011;4900;49.306;8.500;2023-08-31T12:24:01;3.90;;;2.70;;
9722;SDS011;4900;49.306;8.500;2023-08-31T12:26:28;3.75;;;2.17;;
9722;SDS011;4900;49.306;8.500;2023-08-31T12:28:54;3.33;;;2.10;;
9722;SDS011;4900;49.306;8.500;2023-08-31T12:31:20;3.90;;;2.10;;
9722;SDS011;4900;49.306;8.500;2023-08-31T12:33:46;6.05;;;2.50;;
9722;SDS011;4900;49.306;8.500;2023-08-31T12:36:12;3.75;;;2.15;;
9722;SDS011;4900;49.306;8.500;2023-08-31T12:38:37;3.05;;;2.30;;
9722;SDS011;4900;49.306;8.500;2023-08-31T12:41:03;2.95;;;2.40;;
9722;SDS011;4900;49.306;8.500;2023-08-31T12:43:29;3.25;;;2.28;;
9722;SDS011;4900;49.306;8.500;2023-08-31T12:45:54;4.43;;;2.60;;
9722;SDS011;4900;49.306;8.500;2023-08-31T12:48:20;4.78;;;2.60;;
9722;SDS011;4900;49.306;8.500;2023-08-31T12:50:45;6.28;;;2.78;;
9722;SDS011;4900;49.306;8.500;2023-08-31T12:53:13;5.60;;;3.13;;
9722;SDS011;4900;49.306;8.500;2023-08-31T12:55:38;4.13;;;2.72;;
9722;SDS011;4900;49.306;8.500;2023-08-31T12:58:04;4.13;;;2.47;;
9722;SDS011;4900;49.306;8.500;2023-08-31T13:00:29;4.50;;;2.30;;
9722;SDS011;4900;49.306;8.500;2023-08-31T13:02:55;3.55;;;1.95;;
9722;SDS011;4900;49.306;8.500;2023-08-31T13:05:20;4.50;;;2.17;;
9722;SDS011;4900;49.306;8.500;2023-08-31T13:07:46;3.92;;;2.20;;
9722;SDS011;4900;49.306;8.500;2023-08-31T13:10:11;3.72;;;2.15;;
9722;SDS011;4900;49.306;8.500;2023-08-31T13:12:37;5.97;;;2.40;;
9722;SDS011;4900;49.306;8.500;2023-08-31T13:15:02;4.07;;;2.47;;
9722;SDS011;4900;49.306;8.500;2023-08-31T13:17:28;4.13;;;2.65;;
9722;SDS011;4900;49.306;8.500;2023-08-31T13:19:54;3.95;;;2.28;;
9722;SDS011;4900;49.306;8.500;2023-08-31T13:22:20;4.57;;;2.55;;
9722;SDS011;4900;49.306;8.500;2023-08-31T13:24:46;4.18;;;2.35;;
9722;SDS011;4900;49.306;8.500;2023-08-31T13:27:11;4.53;;;2.70;;
9722;SDS011;4900;49.306;8.500;2023-08-31T13:29:38;4.80;;;2.92;;
9722;SDS011;4900;49.306;8.500;2023-08-31T13:32:04;4.82;;;2.38;;
9722;SDS011;4900;49.306;8.500;2023-08-31T13:34:30;5.50;;;2.65;;
9722;SDS011;4900;49.306;8.500;2023-08-31T13:36:55;4.90;;;3.15;;
9722;SDS011;4900;49.306;8.500;2023-08-31T13:39:21;5.15;;;2.55;;
9722;SDS011;4900;49.306;8.500;2023-08-31T13:41:50;5.05;;;2.70;;
9722;SDS011;4900;49.306;8.500;2023-08-31T13:44:17;4.82;;;2.70;;
9722;SDS011;4900;49.306;8.500;2023-08-31T13:46:42;4.63;;;2.92;;
9722;SDS011;4900;49.306;8.500;2023-08-31T13:49:07;4.78;;;2.50;;
9722;SDS011;4900;49.306;8.500;2023-08-31T13:51:33;3.92;;;2.20;;
9722;SDS011;4900;49.306;8.500;2023-08-31T13:53:58;4.20;;;2.22;;
9722;SDS011;4900;49.306;8.500;2023-08-31T13:56:24;4.68;;;2.65;;
9722;SDS011;4900;49.306;8.500;2023-08-31T13:58:49;4.22;;;2.70;;
9722;SDS011;4900;49.306;8.500;2023-08-31T14:01:15;4.40;;;2.55;;
9722;SDS011;4900;49.306;8.500;2023-08-31T14:03:40;3.47;;;2.65;;
9722;SDS011;4900;49.306;8.500;2023-08-31T14:06:06;4.68;;;3.40;;
9722;SDS011;4900;49.306;8.500;2023-08-31T14:08:33;5.40;;;3.40;;
9722;SDS011;4900;49.306;8.500;2023-08-31T14:10:59;5.53;;;3.10;;
9722;SDS011;4900;49.306;8.500;2023-08-31T14:13:24;3.90;;;2.78;;
9722;SDS011;4900;49.306;8.500;2023-08-31T14:15:49;5.55;;;3.90;;
9722;SDS011;4900;49.306;8.500;2023-08-31T14:18:15;5.57;;;3.33;;
9722;SDS011;4900;49.306;8.500;2023-08-31T14:20:40;4.57;;;3.70;;
9722;SDS011;4900;49.306;8.500;2023-08-31T14:23:06;5.15;;;3.60;;
9722;SDS011;4900;49.306;8.500;2023-08-31T14:25:37;4.68;;;2.95;;
9722;SDS011;4900;49.306;8.500;2023-08-31T14:28:03;5.80;;;3.17;;
9722;SDS011;4900;49.306;8.500;2023-08-31T14:30:30;5.68;;;3.15;;
9722;SDS011;4900;49.306;8.500;2023-08-31T14:32:55;8.38;;;4.80;;
9722;SDS011;4900;49.306;8.500;2023-08-31T14:35:21;6.53;;;4.60;;
9722;SDS011;4900;49.306;8.500;2023-08-31T14:37:46;5.50;;;3.92;;
9722;SDS011;4900;49.306;8.500;2023-08-31T14:40:12;5.57;;;3.20;;
9722;SDS011;4900;49.306;8.500;2023-08-31T14:42:37;4.95;;;2.70;;
9722;SDS011;4900;49.306;8.500;2023-08-31T14:45:03;5.50;;;2.88;;
9722;SDS011;4900;49.306;8.500;2023-08-31T14:47:29;3.80;;;2.92;;
9722;SDS011;4900;49.306;8.500;2023-08-31T14:49:57;4.45;;;2.78;;
9722;SDS011;4900;49.306;8.500;2023-08-31T14:52:23;4.20;;;2.60;;
9722;SDS011;4900;49.306;8.500;2023-08-31T14:54:48;3.63;;;2.50;;
9722;SDS011;4900;49.306;8.500;2023-08-31T14:57:14;6.82;;;4.75;;
9722;SDS011;4900;49.306;8.500;2023-08-31T14:59:39;7.13;;;4.60;;
9722;SDS011;4900;49.306;8.500;2023-08-31T15:02:05;6.70;;;5.07;;
9722;SDS011;4900;49.306;8.500;2023-08-31T15:04:31;6.85;;;4.97;;
9722;SDS011;4900;49.306;8.500;2023-08-31T15:06:57;5.80;;;4.30;;
9722;SDS011;4900;49.306;8.500;2023-08-31T15:09:23;6.82;;;4.40;;
9722;SDS011;4900;49.306;8.500;2023-08-31T15:11:49;7.05;;;3.90;;
9722;SDS011;4900;49.306;8.500;2023-08-31T15:14:14;4.30;;;2.70;;
9722;SDS011;4900;49.306;8.500;2023-08-31T15:16:40;4.40;;;2.72;;
9722;SDS011;4900;49.306;8.500;2023-08-31T15:19:06;4.65;;;2.65;;
9722;SDS011;4900;49.306;8.500;2023-08-31T15:21:32;4.18;;;2.65;;
9722;SDS011;4900;49.306;8.500;2023-08-31T15:23:57;4.80;;;2.30;;
9722;SDS011;4900;49.306;8.500;2023-08-31T15:26:23;4.28;;;2.35;;